Riverton, Connecticut
Current Conditions -  °F | °C
As of 6:51 AM on Monday 26 Jan 2015 (Local Time) from KBDL Reporting Station
Broken Clouds Broken Clouds  
Wind Chill:   Ceiling: 8500
Heat Index: 14°   Visibility: 10mi
Dew Point:   Wind: 12mph
Humidity: 56%   Direction: 10°N
Pressure: 30.09"   Gusts: NA
Location:  41.96°N, 73.02°W
Report Text: KBDL 261151Z 01010KT 10SM BKN085 BKN120 BKN200 M10/M17 A3009 RMK AO2 SLP192 4/004 T11001172 11078 21100 53010 $
Loading
Personal Weather Stations






























Interactive Weather Map New forecast layout! Learn more

10-Day Weather Forecast

Advertisements
Track Severe Weather on mobile